createdAt,value
2023-03-03T00:00:52.104Z,6.00
2023-03-03T00:03:22.621Z,6.00
2023-03-03T00:05:50.803Z,5.90
2023-03-03T00:08:19.901Z,5.90
2023-03-03T00:10:47.233Z,5.90
2023-03-03T00:13:24.139Z,5.90
2023-03-03T00:15:53.123Z,5.90
2023-03-03T00:18:42.715Z,5.80
2023-03-03T00:21:25.672Z,5.80
2023-03-03T00:23:53.200Z,5.80
2023-03-03T00:26:23.487Z,5.90
2023-03-03T00:28:54.676Z,6.00
2023-03-03T00:31:29.584Z,6.00
2023-03-03T00:34:01.857Z,6.00
2023-03-03T00:36:38.081Z,6.00
2023-03-03T00:39:35.630Z,6.00
2023-03-03T00:42:11.165Z,6.00
2023-03-03T00:44:46.489Z,6.10
2023-03-03T00:47:31.642Z,6.10
2023-03-03T00:50:27.325Z,6.10
2023-03-03T00:53:06.678Z,6.10
2023-03-03T00:55:35.091Z,6.00
2023-03-03T00:58:03.509Z,6.00
2023-03-03T01:00:36.180Z,6.00
2023-03-03T01:03:08.603Z,5.90
2023-03-03T01:05:37.131Z,5.80
2023-03-03T01:08:05.381Z,5.70
2023-03-03T01:10:35.918Z,5.60
2023-03-03T01:13:04.770Z,5.60
2023-03-03T01:15:32.593Z,5.70
2023-03-03T01:18:00.047Z,5.60
2023-03-03T01:20:27.843Z,5.70
2023-03-03T01:22:55.087Z,5.70
2023-03-03T01:25:22.566Z,5.80
2023-03-03T01:27:49.791Z,5.70
2023-03-03T01:30:18.596Z,5.70
2023-03-03T01:32:45.937Z,5.70
2023-03-03T01:35:13.247Z,5.60
2023-03-03T01:37:40.621Z,5.60
2023-03-03T01:40:14.642Z,5.70
2023-03-03T01:42:41.881Z,5.70
2023-03-03T01:45:42.628Z,5.60
2023-03-03T01:48:12.140Z,5.60
2023-03-03T01:50:51.919Z,5.50
2023-03-03T01:53:23.742Z,5.40
2023-03-03T01:55:53.212Z,5.40
2023-03-03T01:58:28.780Z,5.40
2023-03-03T02:01:07.262Z,5.40
2023-03-03T02:03:35.587Z,5.50
2023-03-03T02:06:20.090Z,5.50
2023-03-03T02:09:17.923Z,5.40
2023-03-03T02:11:49.010Z,5.40
2023-03-03T02:14:16.482Z,5.40
2023-03-03T02:16:44.325Z,5.40
2023-03-03T02:19:27.735Z,5.40
2023-03-03T02:21:55.319Z,5.40
2023-03-03T02:24:39.446Z,5.30
2023-03-03T02:27:07.035Z,5.30
2023-03-03T02:29:34.318Z,5.40
2023-03-03T02:32:01.960Z,5.40
2023-03-03T02:34:29.353Z,5.40
2023-03-03T02:36:56.609Z,5.50
2023-03-03T02:39:26.563Z,5.50
2023-03-03T02:41:56.185Z,5.50
2023-03-03T02:44:29.036Z,5.40
2023-03-03T02:46:57.632Z,5.40
2023-03-03T02:49:33.701Z,5.40
2023-03-03T02:52:02.654Z,5.40
2023-03-03T02:54:31.375Z,5.40
2023-03-03T02:57:00.784Z,5.40
2023-03-03T02:59:28.630Z,5.50
2023-03-03T03:01:58.058Z,5.50
2023-03-03T03:04:27.455Z,5.50
2023-03-03T03:06:56.290Z,5.50
2023-03-03T03:09:26.010Z,5.40
2023-03-03T03:11:55.052Z,5.40
2023-03-03T03:14:25.789Z,5.40
2023-03-03T03:16:54.710Z,5.40
2023-03-03T03:19:22.066Z,5.40
2023-03-03T03:21:49.562Z,5.40
2023-03-03T03:24:18.156Z,5.40
2023-03-03T03:26:51.396Z,5.40
2023-03-03T03:29:18.729Z,5.40
2023-03-03T03:31:46.088Z,5.30
2023-03-03T03:34:13.830Z,5.40
2023-03-03T03:36:41.507Z,5.40
2023-03-03T03:39:09.093Z,5.40
2023-03-03T03:41:41.104Z,5.40
2023-03-03T03:44:08.454Z,5.40
2023-03-03T03:46:35.778Z,5.40
2023-03-03T03:49:03.070Z,5.40
2023-03-03T03:51:31.577Z,5.40
2023-03-03T03:53:59.331Z,5.40
2023-03-03T03:56:27.077Z,5.40
2023-03-03T03:58:57.662Z,5.40
2023-03-03T04:01:25.546Z,5.40
2023-03-03T04:03:53.852Z,5.40
2023-03-03T04:06:24.312Z,5.40
2023-03-03T04:08:52.744Z,5.40
2023-03-03T04:11:22.839Z,5.40
2023-03-03T04:13:50.161Z,5.50
2023-03-03T04:16:18.010Z,5.50
2023-03-03T04:18:46.814Z,5.40
2023-03-03T04:21:16.733Z,5.40
2023-03-03T04:23:45.814Z,5.40
2023-03-03T04:26:13.200Z,5.40
2023-03-03T04:28:41.498Z,5.40
2023-03-03T04:31:08.972Z,5.50
2023-03-03T04:33:36.342Z,5.40
2023-03-03T04:36:05.392Z,5.40
2023-03-03T04:38:32.949Z,5.40
2023-03-03T04:41:00.685Z,5.40
2023-03-03T04:43:32.006Z,5.30
2023-03-03T04:45:59.439Z,5.30
2023-03-03T04:48:26.720Z,5.30
2023-03-03T04:50:54.610Z,5.20
2023-03-03T04:53:22.013Z,5.20
2023-03-03T04:55:55.024Z,5.20
2023-03-03T04:58:23.301Z,5.10
2023-03-03T05:00:57.539Z,5.10
2023-03-03T05:03:27.398Z,5.10
2023-03-03T05:05:55.035Z,5.20
2023-03-03T05:08:22.546Z,5.10
2023-03-03T05:10:54.302Z,5.10
2023-03-03T05:13:21.661Z,5.00
2023-03-03T05:15:53.460Z,5.00
2023-03-03T05:18:21.369Z,5.10
2023-03-03T05:20:49.772Z,5.10
2023-03-03T05:23:17.132Z,5.10
2023-03-03T05:25:44.816Z,5.20
2023-03-03T05:28:12.286Z,5.20
2023-03-03T05:30:40.026Z,5.20
2023-03-03T05:33:07.594Z,5.30
2023-03-03T05:35:34.962Z,5.30
2023-03-03T05:38:05.302Z,5.30
2023-03-03T05:40:32.826Z,5.30
2023-03-03T05:43:00.120Z,5.30
2023-03-03T05:45:27.584Z,5.30
2023-03-03T05:47:54.898Z,5.30
2023-03-03T05:50:23.379Z,5.30
2023-03-03T05:52:52.028Z,5.30
2023-03-03T05:55:20.050Z,5.40
2023-03-03T05:57:47.363Z,5.40
2023-03-03T06:00:16.801Z,5.40
2023-03-03T06:02:44.223Z,5.40
2023-03-03T06:05:12.022Z,5.50
2023-03-03T06:07:39.856Z,5.50
2023-03-03T06:10:07.956Z,5.50
2023-03-03T06:12:39.108Z,5.60
2023-03-03T06:15:07.526Z,5.70
2023-03-03T06:17:35.001Z,5.80
2023-03-03T06:20:03.360Z,6.00
2023-03-03T06:22:30.827Z,6.30
2023-03-03T06:24:58.648Z,6.60
2023-03-03T06:27:25.918Z,6.80
2023-03-03T06:29:53.327Z,7.10
2023-03-03T06:32:20.696Z,7.50
2023-03-03T06:34:47.954Z,7.80
2023-03-03T06:37:15.192Z,8.10
2023-03-03T06:39:42.494Z,8.30
2023-03-03T06:42:09.967Z,8.70
2023-03-03T06:44:37.477Z,8.70
2023-03-03T06:47:05.929Z,8.70
2023-03-03T06:49:33.399Z,9.00
2023-03-03T06:52:09.898Z,9.20
2023-03-03T06:54:37.120Z,9.30
2023-03-03T06:57:22.664Z,9.40
2023-03-03T06:59:52.602Z,9.70
2023-03-03T07:02:21.022Z,9.80
2023-03-03T07:04:48.504Z,10.00
2023-03-03T07:07:22.811Z,10.30
2023-03-03T07:09:54.284Z,10.60
2023-03-03T07:12:28.564Z,10.90
2023-03-03T07:15:17.935Z,11.20
2023-03-03T07:17:50.892Z,11.40
2023-03-03T07:20:21.820Z,11.70
2023-03-03T07:22:49.377Z,11.90
2023-03-03T07:25:33.578Z,11.80
2023-03-03T07:28:14.730Z,11.90
2023-03-03T07:30:42.773Z,12.10
2023-03-03T07:33:22.925Z,12.20
2023-03-03T07:35:50.308Z,12.50
2023-03-03T07:38:25.550Z,12.60
2023-03-03T07:40:55.800Z,12.60
2023-03-03T07:43:32.501Z,12.90
2023-03-03T07:46:08.676Z,13.40
2023-03-03T07:48:36.962Z,13.50
2023-03-03T07:51:12.244Z,13.60
2023-03-03T07:53:39.696Z,13.70
2023-03-03T07:56:28.049Z,13.60
2023-03-03T07:58:56.776Z,13.60
2023-03-03T08:01:42.084Z,13.80
2023-03-03T08:04:28.545Z,14.00
2023-03-03T08:07:01.325Z,13.70
2023-03-03T08:09:34.432Z,13.80
2023-03-03T08:12:09.192Z,14.10
2023-03-03T08:14:38.540Z,14.20
2023-03-03T08:17:23.825Z,14.30
2023-03-03T08:19:52.802Z,14.30
2023-03-03T08:22:38.114Z,14.20
2023-03-03T08:25:05.587Z,14.10
2023-03-03T08:27:33.023Z,14.10
2023-03-03T08:30:00.279Z,14.00
2023-03-03T08:32:27.604Z,13.80
2023-03-03T08:34:55.088Z,13.80
2023-03-03T08:37:22.429Z,13.70
2023-03-03T08:39:49.914Z,13.90
2023-03-03T08:42:17.172Z,13.80
2023-03-03T08:44:44.555Z,13.80
2023-03-03T08:47:11.795Z,13.70
2023-03-03T08:49:39.932Z,13.80
2023-03-03T08:52:07.201Z,13.80
2023-03-03T08:54:34.757Z,13.90
2023-03-03T08:57:02.132Z,14.10
2023-03-03T08:59:29.380Z,14.30
2023-03-03T09:01:56.980Z,14.40
2023-03-03T09:04:24.423Z,14.50
2023-03-03T09:06:51.711Z,14.60
2023-03-03T09:09:18.945Z,14.70
2023-03-03T09:11:47.165Z,14.70
2023-03-03T09:14:17.070Z,14.60
2023-03-03T09:16:51.386Z,14.70
2023-03-03T09:19:30.832Z,14.70
2023-03-03T09:22:18.124Z,14.90
2023-03-03T09:24:47.559Z,15.00
2023-03-03T09:27:33.868Z,14.90
2023-03-03T09:30:39.482Z,14.90
2023-03-03T09:33:31.011Z,15.00
2023-03-03T09:36:03.921Z,14.90
2023-03-03T09:38:39.918Z,15.10
2023-03-03T09:41:25.454Z,15.30
2023-03-03T09:44:17.837Z,15.30
2023-03-03T09:46:45.120Z,15.10
2023-03-03T09:49:18.905Z,14.90
2023-03-03T09:51:57.604Z,15.00
2023-03-03T09:54:54.956Z,15.30
2023-03-03T09:57:32.545Z,15.30
2023-03-03T10:00:17.082Z,15.60
2023-03-03T10:02:57.801Z,15.40
2023-03-03T10:05:48.737Z,15.20
2023-03-03T10:08:37.421Z,15.40
2023-03-03T10:11:37.260Z,15.60
2023-03-03T10:14:42.168Z,15.80
2023-03-03T10:17:18.543Z,15.80
2023-03-03T10:20:11.551Z,15.40
2023-03-03T10:22:48.766Z,15.30
2023-03-03T10:25:37.764Z,15.40
2023-03-03T10:28:30.161Z,15.10
2023-03-03T10:31:29.157Z,15.00
2023-03-03T10:34:22.329Z,15.00
2023-03-03T10:37:15.882Z,15.20
2023-03-03T10:40:20.009Z,15.60
2023-03-03T10:43:05.361Z,15.80
2023-03-03T10:46:03.284Z,15.60
2023-03-03T10:48:40.867Z,15.20
2023-03-03T10:51:28.367Z,15.00
2023-03-03T10:54:30.632Z,14.70
2023-03-03T10:57:07.526Z,15.10
2023-03-03T10:59:45.235Z,15.10
2023-03-03T11:02:30.764Z,15.10
2023-03-03T11:05:31.262Z,15.00
2023-03-03T11:08:20.893Z,15.20
2023-03-03T11:10:54.772Z,15.50
2023-03-03T11:13:41.691Z,15.70
2023-03-03T11:16:34.662Z,15.70
2023-03-03T11:19:16.686Z,15.60
2023-03-03T11:22:13.590Z,15.50
2023-03-03T11:24:53.070Z,15.50
2023-03-03T11:27:26.232Z,15.20
2023-03-03T11:30:23.824Z,15.10
2023-03-03T11:33:06.272Z,15.00
2023-03-03T11:35:36.927Z,15.10
2023-03-03T11:38:23.399Z,15.00
2023-03-03T11:41:15.484Z,14.90
2023-03-03T11:43:47.398Z,14.90
2023-03-03T11:46:46.338Z,14.90
2023-03-03T11:49:23.914Z,14.80
2023-03-03T11:52:02.914Z,14.90
2023-03-03T11:54:45.707Z,15.10
2023-03-03T11:57:19.011Z,15.10
2023-03-03T12:00:10.886Z,15.00
2023-03-03T12:02:50.497Z,15.00
2023-03-03T12:05:23.618Z,15.00
2023-03-03T12:08:05.321Z,14.80
2023-03-03T12:11:09.833Z,14.60
2023-03-03T12:13:48.525Z,14.50
2023-03-03T12:16:27.818Z,14.40
2023-03-03T12:19:15.318Z,14.40
2023-03-03T12:21:51.005Z,14.50
2023-03-03T12:24:49.357Z,14.60
2023-03-03T12:27:42.936Z,14.50
2023-03-03T12:30:32.124Z,14.40
2023-03-03T12:33:21.124Z,14.20
2023-03-03T12:36:05.400Z,14.10
2023-03-03T12:38:50.233Z,14.10
2023-03-03T12:41:37.287Z,14.10
2023-03-03T12:44:28.755Z,14.20
2023-03-03T12:47:33.288Z,14.40
2023-03-03T12:50:18.564Z,14.60
2023-03-03T12:53:10.819Z,14.60
2023-03-03T12:56:07.412Z,14.40
2023-03-03T12:58:57.922Z,14.20
2023-03-03T13:02:01.963Z,14.10
2023-03-03T13:04:38.131Z,14.00
2023-03-03T13:07:09.159Z,14.00
2023-03-03T13:10:00.848Z,14.00
2023-03-03T13:12:41.752Z,14.10
2023-03-03T13:15:18.343Z,14.30
2023-03-03T13:17:56.746Z,14.40
2023-03-03T13:20:27.047Z,14.40
2023-03-03T13:23:38.148Z,14.40
2023-03-03T13:26:32.090Z,14.50
2023-03-03T13:29:30.205Z,14.60
2023-03-03T13:32:02.188Z,14.80
2023-03-03T13:34:56.860Z,15.00
2023-03-03T13:37:42.181Z,15.20
2023-03-03T13:40:25.570Z,15.10
2023-03-03T13:42:58.533Z,14.90
2023-03-03T13:45:41.275Z,14.80
2023-03-03T13:48:20.751Z,14.80
2023-03-03T13:51:00.222Z,14.80
2023-03-03T13:54:15.151Z,14.70
2023-03-03T13:56:45.388Z,14.60
2023-03-03T13:59:34.325Z,14.70
2023-03-03T14:02:26.237Z,15.00
2023-03-03T14:04:58.654Z,15.10
2023-03-03T14:07:38.984Z,15.00
2023-03-03T14:10:18.326Z,14.80
2023-03-03T14:13:17.948Z,14.70
2023-03-03T14:15:50.488Z,14.60
2023-03-03T14:18:46.708Z,14.70
2023-03-03T14:21:29.832Z,14.80
2023-03-03T14:24:18.002Z,14.70
2023-03-03T14:26:51.017Z,14.60
2023-03-03T14:29:27.483Z,14.50
2023-03-03T14:31:56.649Z,14.60
2023-03-03T14:34:23.927Z,14.60
2023-03-03T14:36:55.789Z,14.50
2023-03-03T14:39:30.578Z,14.40
2023-03-03T14:41:59.302Z,14.40
2023-03-03T14:44:37.101Z,14.40
2023-03-03T14:47:10.722Z,14.40
2023-03-03T14:49:40.723Z,14.40
2023-03-03T14:52:19.070Z,14.40
2023-03-03T14:54:56.146Z,14.40
2023-03-03T14:57:35.982Z,14.40
2023-03-03T15:00:29.948Z,14.50
2023-03-03T15:03:27.970Z,14.40
2023-03-03T15:05:57.963Z,14.50
2023-03-03T15:08:33.076Z,14.50
2023-03-03T15:11:17.547Z,14.50
2023-03-03T15:13:45.133Z,14.50
2023-03-03T15:16:19.584Z,14.40
2023-03-03T15:19:19.040Z,14.30
2023-03-03T15:22:14.498Z,14.40
2023-03-03T15:24:52.996Z,14.30
2023-03-03T15:27:27.578Z,14.30
2023-03-03T15:30:02.660Z,14.30
2023-03-03T15:32:48.539Z,14.20
2023-03-03T15:35:34.593Z,14.20
2023-03-03T15:38:23.024Z,14.20
2023-03-03T15:41:11.443Z,14.20
2023-03-03T15:44:14.400Z,14.30
2023-03-03T15:46:58.222Z,14.30
2023-03-03T15:49:53.199Z,14.30
2023-03-03T15:52:33.167Z,14.30
2023-03-03T15:55:32.361Z,14.20
2023-03-03T15:58:08.364Z,14.20
2023-03-03T16:00:38.763Z,14.10
2023-03-03T16:03:18.725Z,14.00
2023-03-03T16:06:04.071Z,14.10
2023-03-03T16:08:44.872Z,14.00
2023-03-03T16:11:44.664Z,13.90
2023-03-03T16:14:17.728Z,14.00
2023-03-03T16:17:03.876Z,14.00
2023-03-03T16:19:55.022Z,14.10
2023-03-03T16:22:27.690Z,14.00
2023-03-03T16:25:21.948Z,14.00
2023-03-03T16:28:16.863Z,13.90
2023-03-03T16:30:50.477Z,13.80
2023-03-03T16:33:36.528Z,13.70
2023-03-03T16:36:11.761Z,13.70
2023-03-03T16:38:43.221Z,13.60
2023-03-03T16:41:21.178Z,13.60
2023-03-03T16:44:17.892Z,13.50
2023-03-03T16:46:49.319Z,13.50
2023-03-03T16:49:22.739Z,13.40
2023-03-03T16:51:57.002Z,13.40
2023-03-03T16:54:54.291Z,13.30
2023-03-03T16:57:33.253Z,13.30
2023-03-03T17:00:09.649Z,13.20
2023-03-03T17:02:39.984Z,13.20
2023-03-03T17:05:34.035Z,13.20
2023-03-03T17:08:28.698Z,13.10
2023-03-03T17:11:21.562Z,13.00
2023-03-03T17:13:57.822Z,12.90
2023-03-03T17:16:53.031Z,12.80
2023-03-03T17:19:50.937Z,12.70
2023-03-03T17:22:38.777Z,12.60
2023-03-03T17:25:06.124Z,12.50
2023-03-03T17:27:57.946Z,12.40
2023-03-03T17:30:45.478Z,12.40
2023-03-03T17:33:30.156Z,12.20
2023-03-03T17:36:07.895Z,12.10
2023-03-03T17:38:47.267Z,12.10
2023-03-03T17:41:17.278Z,12.00
2023-03-03T17:44:13.673Z,11.90
2023-03-03T17:46:55.067Z,12.00
2023-03-03T17:49:46.176Z,12.10
2023-03-03T17:52:43.470Z,12.00
2023-03-03T17:55:13.837Z,11.90
2023-03-03T17:58:18.922Z,11.80
2023-03-03T18:01:07.263Z,11.80
2023-03-03T18:04:05.728Z,11.70
2023-03-03T18:06:56.579Z,11.50
2023-03-03T18:09:32.553Z,11.30
2023-03-03T18:12:41.447Z,11.20
2023-03-03T18:15:08.684Z,11.20
2023-03-03T18:17:51.102Z,11.10
2023-03-03T18:20:39.390Z,11.10
2023-03-03T18:23:31.725Z,11.10
2023-03-03T18:26:01.537Z,10.90
2023-03-03T18:28:46.381Z,10.90
2023-03-03T18:31:28.468Z,10.80
2023-03-03T18:34:41.478Z,10.70
2023-03-03T18:37:30.736Z,10.80
2023-03-03T18:40:03.857Z,10.80
2023-03-03T18:42:38.816Z,10.80
2023-03-03T18:45:18.384Z,10.70
2023-03-03T18:48:02.769Z,10.60
2023-03-03T18:50:45.042Z,10.50
2023-03-03T18:53:15.449Z,10.40
2023-03-03T18:55:50.370Z,10.30
2023-03-03T18:58:18.545Z,10.30
2023-03-03T19:00:51.608Z,10.30
2023-03-03T19:03:38.272Z,10.40
2023-03-03T19:06:10.457Z,10.40
2023-03-03T19:08:53.793Z,10.40
2023-03-03T19:11:50.770Z,10.50
2023-03-03T19:14:28.887Z,10.40
2023-03-03T19:16:58.219Z,10.40
2023-03-03T19:20:04.200Z,10.40
2023-03-03T19:22:40.023Z,10.40
2023-03-03T19:25:15.805Z,10.40
2023-03-03T19:27:52.848Z,10.40
2023-03-03T19:30:38.752Z,10.30
2023-03-03T19:33:18.252Z,10.10
2023-03-03T19:36:16.970Z,10.20
2023-03-03T19:38:54.908Z,10.10
2023-03-03T19:41:43.509Z,10.10
2023-03-03T19:44:35.075Z,10.10
2023-03-03T19:47:06.524Z,10.10
2023-03-03T19:49:53.068Z,10.10
2023-03-03T19:52:36.617Z,10.10
2023-03-03T19:55:18.273Z,10.10
2023-03-03T19:57:46.595Z,10.10
2023-03-03T20:00:35.521Z,10.00
2023-03-03T20:03:19.648Z,10.00
2023-03-03T20:06:08.907Z,10.00
2023-03-03T20:08:42.887Z,9.90
2023-03-03T20:11:20.373Z,9.90
2023-03-03T20:14:05.673Z,9.90
2023-03-03T20:16:42.795Z,9.90
2023-03-03T20:19:56.260Z,9.90
2023-03-03T20:23:06.207Z,9.90
2023-03-03T20:25:48.911Z,9.90
2023-03-03T20:28:54.550Z,9.90
2023-03-03T20:31:52.218Z,9.90
2023-03-03T20:34:29.512Z,9.90
2023-03-03T20:37:35.945Z,9.80
2023-03-03T20:40:10.752Z,9.80
2023-03-03T20:42:44.123Z,9.80
2023-03-03T20:45:32.386Z,9.70
2023-03-03T20:48:24.908Z,9.60
2023-03-03T20:51:05.559Z,9.70
2023-03-03T20:54:14.780Z,9.70
2023-03-03T20:57:19.063Z,9.70
2023-03-03T20:59:54.877Z,9.70
2023-03-03T21:02:30.973Z,9.70
2023-03-03T21:05:17.608Z,9.80
2023-03-03T21:08:11.411Z,9.80
2023-03-03T21:10:40.796Z,9.80
2023-03-03T21:13:25.583Z,9.80
2023-03-03T21:16:01.766Z,9.90
2023-03-03T21:18:29.260Z,9.80
2023-03-03T21:20:56.540Z,9.90
2023-03-03T21:23:23.891Z,9.90
2023-03-03T21:25:54.986Z,9.90
2023-03-03T21:28:24.073Z,9.80
2023-03-03T21:31:04.429Z,9.80
2023-03-03T21:33:45.609Z,9.80
2023-03-03T21:36:18.489Z,9.80
2023-03-03T21:38:47.051Z,9.80
2023-03-03T21:41:16.461Z,9.80
2023-03-03T21:43:49.987Z,9.80
2023-03-03T21:46:25.106Z,9.70
2023-03-03T21:48:52.607Z,9.80
2023-03-03T21:51:21.335Z,9.70
2023-03-03T21:53:48.691Z,9.80
2023-03-03T21:56:15.930Z,9.90
2023-03-03T21:58:43.279Z,9.90
2023-03-03T22:01:10.948Z,9.90
2023-03-03T22:03:38.640Z,9.90
2023-03-03T22:06:06.370Z,9.80
2023-03-03T22:08:33.657Z,9.70
2023-03-03T22:11:00.979Z,9.80
2023-03-03T22:13:28.302Z,9.80
2023-03-03T22:15:55.558Z,9.70
2023-03-03T22:18:22.888Z,9.70
2023-03-03T22:20:50.655Z,9.70
2023-03-03T22:23:18.953Z,9.70
2023-03-03T22:25:46.633Z,9.60
2023-03-03T22:28:14.285Z,9.70
2023-03-03T22:30:41.836Z,9.60
2023-03-03T22:33:09.147Z,9.60
2023-03-03T22:35:36.636Z,9.60
2023-03-03T22:38:04.344Z,9.60
2023-03-03T22:40:33.476Z,9.60
2023-03-03T22:43:01.038Z,9.60
2023-03-03T22:45:28.514Z,9.60
2023-03-03T22:47:55.762Z,9.50
2023-03-03T22:50:24.253Z,9.50
2023-03-03T22:52:52.834Z,9.50
2023-03-03T22:55:20.942Z,9.40
2023-03-03T22:57:48.930Z,9.30
2023-03-03T23:00:16.901Z,9.30
2023-03-03T23:02:44.584Z,9.30
2023-03-03T23:05:11.871Z,9.30
2023-03-03T23:07:41.244Z,9.30
2023-03-03T23:10:09.932Z,9.30
2023-03-03T23:12:37.929Z,9.20
2023-03-03T23:15:13.064Z,9.30
2023-03-03T23:17:45.075Z,9.30
2023-03-03T23:20:14.897Z,9.20
2023-03-03T23:22:42.294Z,9.30
2023-03-03T23:25:10.488Z,9.30
2023-03-03T23:27:38.845Z,9.20
2023-03-03T23:30:07.672Z,9.20
2023-03-03T23:32:35.069Z,9.10
2023-03-03T23:35:02.370Z,9.10
2023-03-03T23:37:29.688Z,9.20
2023-03-03T23:39:56.978Z,9.10
2023-03-03T23:42:33.325Z,9.10
2023-03-03T23:45:00.480Z,9.10
2023-03-03T23:47:27.760Z,9.00
2023-03-03T23:49:54.970Z,9.10
2023-03-03T23:52:22.262Z,9.00
2023-03-03T23:54:49.993Z,9.00
2023-03-03T23:57:17.309Z,9.00
2023-03-03T23:59:44.594Z,9.00
